sensor_id;sensor_type;location;lat;lon;timestamp;temperature;humidity
39621;DHT22;25309;48.686;9.170;2023-02-13T00:00:22;3.50;99.90
39621;DHT22;25309;48.686;9.170;2023-02-13T00:02:49;3.50;99.90
39621;DHT22;25309;48.686;9.170;2023-02-13T00:05:18;3.60;99.90
39621;DHT22;25309;48.686;9.170;2023-02-13T00:07:45;3.60;99.90
39621;DHT22;25309;48.686;9.170;2023-02-13T00:10:12;3.60;99.90
39621;DHT22;25309;48.686;9.170;2023-02-13T00:12:39;3.60;99.90
39621;DHT22;25309;48.686;9.170;2023-02-13T00:15:07;3.60;99.90
39621;DHT22;25309;48.686;9.170;2023-02-13T00:17:35;3.50;99.90
39621;DHT22;25309;48.686;9.170;2023-02-13T00:20:02;3.50;99.90
39621;DHT22;25309;48.686;9.170;2023-02-13T00:22:34;3.50;99.90
39621;DHT22;25309;48.686;9.170;2023-02-13T00:25:01;3.40;99.90
39621;DHT22;25309;48.686;9.170;2023-02-13T00:27:28;3.30;99.90
39621;DHT22;25309;48.686;9.170;2023-02-13T00:29:55;3.30;99.90
39621;DHT22;25309;48.686;9.170;2023-02-13T00:32:22;3.20;99.90
39621;DHT22;25309;48.686;9.170;2023-02-13T00:34:49;3.20;99.90
39621;DHT22;25309;48.686;9.170;2023-02-13T00:37:16;3.20;99.90
39621;DHT22;25309;48.686;9.170;2023-02-13T00:39:44;3.10;99.90
39621;DHT22;25309;48.686;9.170;2023-02-13T00:42:11;3.10;99.90
39621;DHT22;25309;48.686;9.170;2023-02-13T00:44:38;3.10;99.90
39621;DHT22;25309;48.686;9.170;2023-02-13T00:47:05;3.00;99.90
39621;DHT22;25309;48.686;9.170;2023-02-13T00:49:32;3.00;99.90
39621;DHT22;25309;48.686;9.170;2023-02-13T00:52:00;2.90;99.90
39621;DHT22;25309;48.686;9.170;2023-02-13T00:54:27;2.90;99.90
39621;DHT22;25309;48.686;9.170;2023-02-13T00:56:55;2.90;99.90
39621;DHT22;25309;48.686;9.170;2023-02-13T00:59:22;2.80;99.90
39621;DHT22;25309;48.686;9.170;2023-02-13T01:01:49;2.70;99.90
39621;DHT22;25309;48.686;9.170;2023-02-13T01:04:16;2.70;99.90
39621;DHT22;25309;48.686;9.170;2023-02-13T01:06:43;2.70;99.90
39621;DHT22;25309;48.686;9.170;2023-02-13T01:09:10;2.70;99.90
39621;DHT22;25309;48.686;9.170;2023-02-13T01:11:37;2.70;99.90
39621;DHT22;25309;48.686;9.170;2023-02-13T01:14:05;2.70;99.90
39621;DHT22;25309;48.686;9.170;2023-02-13T01:16:32;2.70;99.90
39621;DHT22;25309;48.686;9.170;2023-02-13T01:18:59;2.70;99.90
39621;DHT22;25309;48.686;9.170;2023-02-13T01:21:30;2.60;99.90
39621;DHT22;25309;48.686;9.170;2023-02-13T01:23:57;2.60;99.90
39621;DHT22;25309;48.686;9.170;2023-02-13T01:26:24;2.60;99.90
39621;DHT22;25309;48.686;9.170;2023-02-13T01:28:52;2.60;99.90
39621;DHT22;25309;48.686;9.170;2023-02-13T01:31:21;2.60;99.90
39621;DHT22;25309;48.686;9.170;2023-02-13T01:33:49;2.60;99.90
39621;DHT22;25309;48.686;9.170;2023-02-13T01:36:20;2.60;99.90
39621;DHT22;25309;48.686;9.170;2023-02-13T01:38:47;2.60;99.90
39621;DHT22;25309;48.686;9.170;2023-02-13T01:41:14;2.60;99.90
39621;DHT22;25309;48.686;9.170;2023-02-13T01:43:47;2.60;99.90
39621;DHT22;25309;48.686;9.170;2023-02-13T01:46:16;2.60;99.90
39621;DHT22;25309;48.686;9.170;2023-02-13T01:48:46;2.60;99.90
39621;DHT22;25309;48.686;9.170;2023-02-13T01:51:17;2.60;99.90
39621;DHT22;25309;48.686;9.170;2023-02-13T01:53:47;2.60;99.90
39621;DHT22;25309;48.686;9.170;2023-02-13T01:56:21;2.60;99.90
39621;DHT22;25309;48.686;9.170;2023-02-13T01:58:55;2.50;99.90
39621;DHT22;25309;48.686;9.170;2023-02-13T02:01:23;2.50;99.90
39621;DHT22;25309;48.686;9.170;2023-02-13T02:03:56;2.40;99.90
39621;DHT22;25309;48.686;9.170;2023-02-13T02:06:31;2.40;99.90
39621;DHT22;25309;48.686;9.170;2023-02-13T02:09:04;2.40;99.90
39621;DHT22;25309;48.686;9.170;2023-02-13T02:11:35;2.30;99.90
39621;DHT22;25309;48.686;9.170;2023-02-13T02:14:05;2.30;99.90
39621;DHT22;25309;48.686;9.170;2023-02-13T02:16:33;2.30;99.90
39621;DHT22;25309;48.686;9.170;2023-02-13T02:19:08;2.30;99.90
39621;DHT22;25309;48.686;9.170;2023-02-13T02:21:48;2.20;99.90
39621;DHT22;25309;48.686;9.170;2023-02-13T02:24:57;2.20;99.90
39621;DHT22;25309;48.686;9.170;2023-02-13T02:30:55;2.20;99.90
39621;DHT22;25309;48.686;9.170;2023-02-13T02:33:33;2.20;99.90
39621;DHT22;25309;48.686;9.170;2023-02-13T02:36:14;2.20;99.90
39621;DHT22;25309;48.686;9.170;2023-02-13T02:38:57;2.20;99.90
39621;DHT22;25309;48.686;9.170;2023-02-13T02:41:33;2.10;99.90
39621;DHT22;25309;48.686;9.170;2023-02-13T02:44:21;2.10;99.90
39621;DHT22;25309;48.686;9.170;2023-02-13T02:46:57;1.80;99.90
39621;DHT22;25309;48.686;9.170;2023-02-13T02:49:51;2.10;99.90
39621;DHT22;25309;48.686;9.170;2023-02-13T02:52:30;2.10;99.90
39621;DHT22;25309;48.686;9.170;2023-02-13T02:55:06;2.10;99.90
39621;DHT22;25309;48.686;9.170;2023-02-13T02:57:50;2.10;99.90
39621;DHT22;25309;48.686;9.170;2023-02-13T03:00:40;2.10;99.90
39621;DHT22;25309;48.686;9.170;2023-02-13T03:03:27;2.10;99.90
39621;DHT22;25309;48.686;9.170;2023-02-13T03:06:20;2.00;99.90
39621;DHT22;25309;48.686;9.170;2023-02-13T03:08:53;2.00;99.90
39621;DHT22;25309;48.686;9.170;2023-02-13T03:11:41;2.00;99.90
39621;DHT22;25309;48.686;9.170;2023-02-13T03:14:28;2.00;99.90
39621;DHT22;25309;48.686;9.170;2023-02-13T03:16:56;2.00;99.90
39621;DHT22;25309;48.686;9.170;2023-02-13T03:19:50;2.00;99.90
39621;DHT22;25309;48.686;9.170;2023-02-13T03:22:47;2.00;99.90
39621;DHT22;25309;48.686;9.170;2023-02-13T03:25:20;2.00;99.90
39621;DHT22;25309;48.686;9.170;2023-02-13T03:27:58;1.90;99.90
39621;DHT22;25309;48.686;9.170;2023-02-13T03:30:57;1.90;99.90
39621;DHT22;25309;48.686;9.170;2023-02-13T03:33:53;1.90;99.90
39621;DHT22;25309;48.686;9.170;2023-02-13T03:36:31;1.90;99.90
39621;DHT22;25309;48.686;9.170;2023-02-13T03:39:22;1.90;99.90
39621;DHT22;25309;48.686;9.170;2023-02-13T03:41:53;2.00;99.90
39621;DHT22;25309;48.686;9.170;2023-02-13T03:44:26;2.00;99.90
39621;DHT22;25309;48.686;9.170;2023-02-13T03:46:57;2.00;99.90
39621;DHT22;25309;48.686;9.170;2023-02-13T03:49:28;2.00;99.90
39621;DHT22;25309;48.686;9.170;2023-02-13T03:52:18;1.90;99.90
39621;DHT22;25309;48.686;9.170;2023-02-13T03:54:53;1.90;99.90
39621;DHT22;25309;48.686;9.170;2023-02-13T03:57:41;1.90;99.90
39621;DHT22;25309;48.686;9.170;2023-02-13T04:00:33;1.90;99.90
39621;DHT22;25309;48.686;9.170;2023-02-13T04:03:08;1.90;99.90
39621;DHT22;25309;48.686;9.170;2023-02-13T04:05:41;1.90;99.90
39621;DHT22;25309;48.686;9.170;2023-02-13T04:08:08;1.90;99.90
39621;DHT22;25309;48.686;9.170;2023-02-13T04:10:42;1.90;99.90
39621;DHT22;25309;48.686;9.170;2023-02-13T04:13:16;1.80;99.90
39621;DHT22;25309;48.686;9.170;2023-02-13T04:15:48;1.80;99.90
39621;DHT22;25309;48.686;9.170;2023-02-13T04:18:18;1.80;99.90
39621;DHT22;25309;48.686;9.170;2023-02-13T04:20:46;1.80;99.90
39621;DHT22;25309;48.686;9.170;2023-02-13T04:23:14;1.70;99.90
39621;DHT22;25309;48.686;9.170;2023-02-13T04:25:44;1.70;99.90
39621;DHT22;25309;48.686;9.170;2023-02-13T04:28:12;1.60;99.90
39621;DHT22;25309;48.686;9.170;2023-02-13T04:30:39;1.60;99.90
39621;DHT22;25309;48.686;9.170;2023-02-13T04:33:06;1.60;99.90
39621;DHT22;25309;48.686;9.170;2023-02-13T04:35:33;1.60;99.90
39621;DHT22;25309;48.686;9.170;2023-02-13T04:38:01;1.60;99.90
39621;DHT22;25309;48.686;9.170;2023-02-13T04:40:28;1.60;99.90
39621;DHT22;25309;48.686;9.170;2023-02-13T04:42:57;1.60;99.90
39621;DHT22;25309;48.686;9.170;2023-02-13T04:45:24;1.50;99.90
39621;DHT22;25309;48.686;9.170;2023-02-13T04:47:52;1.50;99.90
39621;DHT22;25309;48.686;9.170;2023-02-13T04:50:19;1.50;99.90
39621;DHT22;25309;48.686;9.170;2023-02-13T04:52:46;1.50;99.90
39621;DHT22;25309;48.686;9.170;2023-02-13T04:55:13;1.40;99.90
39621;DHT22;25309;48.686;9.170;2023-02-13T04:57:40;1.40;99.90
39621;DHT22;25309;48.686;9.170;2023-02-13T05:00:09;1.40;99.90
39621;DHT22;25309;48.686;9.170;2023-02-13T05:02:36;1.40;99.90
39621;DHT22;25309;48.686;9.170;2023-02-13T05:05:05;1.40;99.90
39621;DHT22;25309;48.686;9.170;2023-02-13T05:07:32;1.40;99.90
39621;DHT22;25309;48.686;9.170;2023-02-13T05:09:59;1.40;99.90
39621;DHT22;25309;48.686;9.170;2023-02-13T05:12:26;1.40;99.90
39621;DHT22;25309;48.686;9.170;2023-02-13T05:14:53;1.50;99.90
39621;DHT22;25309;48.686;9.170;2023-02-13T05:17:21;1.50;99.90
39621;DHT22;25309;48.686;9.170;2023-02-13T05:19:48;1.40;99.90
39621;DHT22;25309;48.686;9.170;2023-02-13T05:22:15;1.40;99.90
39621;DHT22;25309;48.686;9.170;2023-02-13T05:25:00;1.50;99.90
39621;DHT22;25309;48.686;9.170;2023-02-13T05:27:27;1.50;99.90
39621;DHT22;25309;48.686;9.170;2023-02-13T05:29:54;1.50;99.90
39621;DHT22;25309;48.686;9.170;2023-02-13T05:32:22;1.50;99.90
39621;DHT22;25309;48.686;9.170;2023-02-13T05:34:49;1.50;99.90
39621;DHT22;25309;48.686;9.170;2023-02-13T05:37:16;1.50;99.90
39621;DHT22;25309;48.686;9.170;2023-02-13T05:39:43;1.50;99.90
39621;DHT22;25309;48.686;9.170;2023-02-13T05:42:10;1.50;99.90
39621;DHT22;25309;48.686;9.170;2023-02-13T05:44:37;1.40;99.90
39621;DHT22;25309;48.686;9.170;2023-02-13T05:47:04;1.40;99.90
39621;DHT22;25309;48.686;9.170;2023-02-13T05:49:33;1.40;99.90
39621;DHT22;25309;48.686;9.170;2023-02-13T05:52:00;1.40;99.90
39621;DHT22;25309;48.686;9.170;2023-02-13T05:54:27;1.40;99.90
39621;DHT22;25309;48.686;9.170;2023-02-13T05:56:54;1.30;99.90
39621;DHT22;25309;48.686;9.170;2023-02-13T05:59:20;1.30;99.90
39621;DHT22;25309;48.686;9.170;2023-02-13T06:01:49;1.30;99.90
39621;DHT22;25309;48.686;9.170;2023-02-13T06:04:16;1.30;99.90
39621;DHT22;25309;48.686;9.170;2023-02-13T06:06:44;1.30;99.90
39621;DHT22;25309;48.686;9.170;2023-02-13T06:09:11;1.30;99.90
39621;DHT22;25309;48.686;9.170;2023-02-13T06:11:38;1.30;99.90
39621;DHT22;25309;48.686;9.170;2023-02-13T06:14:05;1.40;99.90
39621;DHT22;25309;48.686;9.170;2023-02-13T06:16:32;1.40;99.90
39621;DHT22;25309;48.686;9.170;2023-02-13T06:19:00;1.40;99.90
39621;DHT22;25309;48.686;9.170;2023-02-13T06:21:27;1.40;99.90
39621;DHT22;25309;48.686;9.170;2023-02-13T06:23:55;1.40;99.90
39621;DHT22;25309;48.686;9.170;2023-02-13T06:26:22;1.40;99.90
39621;DHT22;25309;48.686;9.170;2023-02-13T06:28:49;1.50;99.90
39621;DHT22;25309;48.686;9.170;2023-02-13T06:31:16;1.40;99.90
39621;DHT22;25309;48.686;9.170;2023-02-13T06:33:43;1.40;99.90
39621;DHT22;25309;48.686;9.170;2023-02-13T06:36:10;1.30;99.90
39621;DHT22;25309;48.686;9.170;2023-02-13T06:38:37;1.30;99.90
39621;DHT22;25309;48.686;9.170;2023-02-13T06:41:06;1.30;99.90
39621;DHT22;25309;48.686;9.170;2023-02-13T06:43:32;1.30;99.90
39621;DHT22;25309;48.686;9.170;2023-02-13T06:46:03;1.40;99.90
39621;DHT22;25309;48.686;9.170;2023-02-13T06:48:30;1.40;99.90
39621;DHT22;25309;48.686;9.170;2023-02-13T06:50:57;1.40;99.90
39621;DHT22;25309;48.686;9.170;2023-02-13T06:53:25;1.40;99.90
39621;DHT22;25309;48.686;9.170;2023-02-13T06:55:52;1.40;99.90
39621;DHT22;25309;48.686;9.170;2023-02-13T06:58:21;1.50;99.90
39621;DHT22;25309;48.686;9.170;2023-02-13T07:00:49;1.50;99.90
39621;DHT22;25309;48.686;9.170;2023-02-13T07:03:17;1.60;99.90
39621;DHT22;25309;48.686;9.170;2023-02-13T07:05:44;1.60;99.90
39621;DHT22;25309;48.686;9.170;2023-02-13T07:08:11;1.70;99.90
39621;DHT22;25309;48.686;9.170;2023-02-13T07:10:39;1.70;99.90
39621;DHT22;25309;48.686;9.170;2023-02-13T07:13:07;1.80;99.90
39621;DHT22;25309;48.686;9.170;2023-02-13T07:15:36;1.80;99.90
39621;DHT22;25309;48.686;9.170;2023-02-13T07:18:04;1.80;99.90
39621;DHT22;25309;48.686;9.170;2023-02-13T07:20:31;1.90;99.90
39621;DHT22;25309;48.686;9.170;2023-02-13T07:22:59;1.90;99.90
39621;DHT22;25309;48.686;9.170;2023-02-13T07:25:26;2.10;99.90
39621;DHT22;25309;48.686;9.170;2023-02-13T07:27:53;2.20;99.90
39621;DHT22;25309;48.686;9.170;2023-02-13T07:30:20;2.40;99.90
39621;DHT22;25309;48.686;9.170;2023-02-13T07:32:48;2.70;99.90
39621;DHT22;25309;48.686;9.170;2023-02-13T07:35:16;2.80;99.90
39621;DHT22;25309;48.686;9.170;2023-02-13T07:37:43;3.00;99.90
39621;DHT22;25309;48.686;9.170;2023-02-13T07:40:10;3.30;99.90
39621;DHT22;25309;48.686;9.170;2023-02-13T07:42:37;3.50;99.90
39621;DHT22;25309;48.686;9.170;2023-02-13T07:45:05;3.80;99.90
39621;DHT22;25309;48.686;9.170;2023-02-13T07:47:33;4.00;99.90
39621;DHT22;25309;48.686;9.170;2023-02-13T07:50:02;4.30;99.90
39621;DHT22;25309;48.686;9.170;2023-02-13T07:52:31;4.60;99.90
39621;DHT22;25309;48.686;9.170;2023-02-13T07:54:59;5.00;99.90
39621;DHT22;25309;48.686;9.170;2023-02-13T07:57:25;5.40;99.90
39621;DHT22;25309;48.686;9.170;2023-02-13T07:59:52;5.80;99.90
39621;DHT22;25309;48.686;9.170;2023-02-13T08:02:19;6.10;99.90
39621;DHT22;25309;48.686;9.170;2023-02-13T08:04:46;6.50;99.90
39621;DHT22;25309;48.686;9.170;2023-02-13T08:07:15;6.90;99.90
39621;DHT22;25309;48.686;9.170;2023-02-13T08:09:43;7.30;99.90
39621;DHT22;25309;48.686;9.170;2023-02-13T08:12:34;7.70;99.90
39621;DHT22;25309;48.686;9.170;2023-02-13T08:15:26;7.90;99.90
39621;DHT22;25309;48.686;9.170;2023-02-13T08:17:53;8.30;99.90
39621;DHT22;25309;48.686;9.170;2023-02-13T08:20:20;8.50;99.90
39621;DHT22;25309;48.686;9.170;2023-02-13T08:22:49;8.80;99.90
39621;DHT22;25309;48.686;9.170;2023-02-13T08:25:16;9.10;99.90
39621;DHT22;25309;48.686;9.170;2023-02-13T08:27:43;9.40;99.90
39621;DHT22;25309;48.686;9.170;2023-02-13T08:30:11;9.60;99.90
39621;DHT22;25309;48.686;9.170;2023-02-13T08:32:38;10.00;99.90
39621;DHT22;25309;48.686;9.170;2023-02-13T08:35:20;10.30;99.90
39621;DHT22;25309;48.686;9.170;2023-02-13T08:37:49;10.70;99.90
39621;DHT22;25309;48.686;9.170;2023-02-13T08:40:17;11.00;99.80
39621;DHT22;25309;48.686;9.170;2023-02-13T08:42:44;11.10;98.90
39621;DHT22;25309;48.686;9.170;2023-02-13T08:45:10;11.30;97.90
39621;DHT22;25309;48.686;9.170;2023-02-13T08:47:37;11.20;97.90
39621;DHT22;25309;48.686;9.170;2023-02-13T08:50:06;11.20;97.70
39621;DHT22;25309;48.686;9.170;2023-02-13T08:52:33;11.20;97.80
39621;DHT22;25309;48.686;9.170;2023-02-13T08:55:02;11.20;97.70
39621;DHT22;25309;48.686;9.170;2023-02-13T08:57:29;11.30;97.70
39621;DHT22;25309;48.686;9.170;2023-02-13T08:59:57;11.60;96.90
39621;DHT22;25309;48.686;9.170;2023-02-13T09:02:24;11.90;97.20
39621;DHT22;25309;48.686;9.170;2023-02-13T09:04:51;12.10;96.60
39621;DHT22;25309;48.686;9.170;2023-02-13T09:07:18;12.30;96.50
39621;DHT22;25309;48.686;9.170;2023-02-13T09:09:44;12.60;96.30
39621;DHT22;25309;48.686;9.170;2023-02-13T09:12:13;12.80;95.80
39621;DHT22;25309;48.686;9.170;2023-02-13T09:14:40;12.90;95.50
39621;DHT22;25309;48.686;9.170;2023-02-13T09:17:07;13.00;95.10
39621;DHT22;25309;48.686;9.170;2023-02-13T09:19:33;13.20;94.70
39621;DHT22;25309;48.686;9.170;2023-02-13T09:22:00;13.40;94.50
39621;DHT22;25309;48.686;9.170;2023-02-13T09:24:27;13.70;93.90
39621;DHT22;25309;48.686;9.170;2023-02-13T09:26:54;13.90;94.10
39621;DHT22;25309;48.686;9.170;2023-02-13T09:29:24;14.20;93.70
39621;DHT22;25309;48.686;9.170;2023-02-13T09:31:51;14.50;92.90
39621;DHT22;25309;48.686;9.170;2023-02-13T09:34:18;14.60;92.90
39621;DHT22;25309;48.686;9.170;2023-02-13T09:36:45;14.90;93.10
39621;DHT22;25309;48.686;9.170;2023-02-13T09:39:12;15.30;92.70
39621;DHT22;25309;48.686;9.170;2023-02-13T09:41:40;15.50;92.10
39621;DHT22;25309;48.686;9.170;2023-02-13T09:44:12;15.60;91.80
39621;DHT22;25309;48.686;9.170;2023-02-13T09:47:03;15.80;91.60
39621;DHT22;25309;48.686;9.170;2023-02-13T09:49:35;16.00;91.40
39621;DHT22;25309;48.686;9.170;2023-02-13T09:52:04;16.20;90.80
39621;DHT22;25309;48.686;9.170;2023-02-13T09:54:31;16.50;90.70
39621;DHT22;25309;48.686;9.170;2023-02-13T09:57:00;16.60;90.20
39621;DHT22;25309;48.686;9.170;2023-02-13T09:59:36;16.70;88.60
39621;DHT22;25309;48.686;9.170;2023-02-13T10:05:18;16.20;90.30
39621;DHT22;25309;48.686;9.170;2023-02-13T10:07:54;15.60;90.30
39621;DHT22;25309;48.686;9.170;2023-02-13T10:10:31;15.30;91.00
39621;DHT22;25309;48.686;9.170;2023-02-13T10:13:15;15.00;91.20
39621;DHT22;25309;48.686;9.170;2023-02-13T10:15:49;14.80;91.30
39621;DHT22;25309;48.686;9.170;2023-02-13T10:18:22;14.70;91.50
39621;DHT22;25309;48.686;9.170;2023-02-13T10:20:52;14.60;91.50
39621;DHT22;25309;48.686;9.170;2023-02-13T10:23:23;14.50;91.10
39621;DHT22;25309;48.686;9.170;2023-02-13T10:25:57;14.30;91.70
39621;DHT22;25309;48.686;9.170;2023-02-13T10:28:32;14.40;91.60
39621;DHT22;25309;48.686;9.170;2023-02-13T10:31:04;14.40;91.60
39621;DHT22;25309;48.686;9.170;2023-02-13T10:33:38;14.50;91.90
39621;DHT22;25309;48.686;9.170;2023-02-13T10:36:15;14.50;91.60
39621;DHT22;25309;48.686;9.170;2023-02-13T10:38:45;14.40;90.90
39621;DHT22;25309;48.686;9.170;2023-02-13T10:41:24;14.40;91.90
39621;DHT22;25309;48.686;9.170;2023-02-13T10:46:35;14.70;90.60
39621;DHT22;25309;48.686;9.170;2023-02-13T10:49:20;14.70;91.40
39621;DHT22;25309;48.686;9.170;2023-02-13T10:51:54;14.60;91.30
39621;DHT22;25309;48.686;9.170;2023-02-13T10:54:32;14.70;91.10
39621;DHT22;25309;48.686;9.170;2023-02-13T10:57:07;14.80;91.00
39621;DHT22;25309;48.686;9.170;2023-02-13T10:59:50;14.90;91.00
39621;DHT22;25309;48.686;9.170;2023-02-13T11:02:25;14.90;90.80
39621;DHT22;25309;48.686;9.170;2023-02-13T11:04:58;14.90;90.30
39621;DHT22;25309;48.686;9.170;2023-02-13T11:07:26;14.80;89.80
39621;DHT22;25309;48.686;9.170;2023-02-13T11:09:57;14.90;90.70
39621;DHT22;25309;48.686;9.170;2023-02-13T11:12:27;14.90;89.30
39621;DHT22;25309;48.686;9.170;2023-02-13T11:14:56;14.80;89.70
39621;DHT22;25309;48.686;9.170;2023-02-13T11:17:24;14.90;90.50
39621;DHT22;25309;48.686;9.170;2023-02-13T11:19:54;14.90;88.50
39621;DHT22;25309;48.686;9.170;2023-02-13T11:22:30;14.90;90.00
39621;DHT22;25309;48.686;9.170;2023-02-13T11:25:00;14.90;89.20
39621;DHT22;25309;48.686;9.170;2023-02-13T11:27:32;15.10;88.00
39621;DHT22;25309;48.686;9.170;2023-02-13T11:30:01;15.10;88.20
39621;DHT22;25309;48.686;9.170;2023-02-13T11:32:29;15.20;88.50
39621;DHT22;25309;48.686;9.170;2023-02-13T11:34:57;15.00;85.80
39621;DHT22;25309;48.686;9.170;2023-02-13T11:37:33;14.80;87.70
39621;DHT22;25309;48.686;9.170;2023-02-13T11:40:27;14.80;88.00
39621;DHT22;25309;48.686;9.170;2023-02-13T11:42:54;14.80;88.40
39621;DHT22;25309;48.686;9.170;2023-02-13T11:45:23;15.00;87.20
39621;DHT22;25309;48.686;9.170;2023-02-13T11:47:52;14.90;88.00
39621;DHT22;25309;48.686;9.170;2023-02-13T11:50:22;14.80;87.90
39621;DHT22;25309;48.686;9.170;2023-02-13T11:52:55;14.90;87.60
39621;DHT22;25309;48.686;9.170;2023-02-13T11:55:30;14.90;88.30
39621;DHT22;25309;48.686;9.170;2023-02-13T11:57:59;14.70;89.70
39621;DHT22;25309;48.686;9.170;2023-02-13T12:00:30;14.70;88.90
39621;DHT22;25309;48.686;9.170;2023-02-13T12:02:59;14.80;89.00
39621;DHT22;25309;48.686;9.170;2023-02-13T12:05:27;14.80;87.80
39621;DHT22;25309;48.686;9.170;2023-02-13T12:07:58;15.00;88.50
39621;DHT22;25309;48.686;9.170;2023-02-13T12:10:27;14.90;88.30
39621;DHT22;25309;48.686;9.170;2023-02-13T12:12:55;15.00;88.90
39621;DHT22;25309;48.686;9.170;2023-02-13T12:15:25;14.90;88.60
39621;DHT22;25309;48.686;9.170;2023-02-13T12:18:03;14.80;88.50
39621;DHT22;25309;48.686;9.170;2023-02-13T12:20:38;14.60;88.20
39621;DHT22;25309;48.686;9.170;2023-02-13T12:23:16;14.70;89.10
39621;DHT22;25309;48.686;9.170;2023-02-13T12:25:53;14.50;89.00
39621;DHT22;25309;48.686;9.170;2023-02-13T12:28:27;14.60;90.40
39621;DHT22;25309;48.686;9.170;2023-02-13T12:31:13;14.80;89.40
39621;DHT22;25309;48.686;9.170;2023-02-13T12:36:48;15.30;89.50
39621;DHT22;25309;48.686;9.170;2023-02-13T12:39:28;15.60;88.70
39621;DHT22;25309;48.686;9.170;2023-02-13T12:42:17;15.50;89.40
39621;DHT22;25309;48.686;9.170;2023-02-13T12:45:04;15.20;88.10
39621;DHT22;25309;48.686;9.170;2023-02-13T12:47:44;15.10;88.80
39621;DHT22;25309;48.686;9.170;2023-02-13T12:50:26;15.10;88.20
39621;DHT22;25309;48.686;9.170;2023-02-13T12:53:08;15.10;88.70
39621;DHT22;25309;48.686;9.170;2023-02-13T12:55:53;15.20;88.80
39621;DHT22;25309;48.686;9.170;2023-02-13T12:58:55;15.40;87.90
39621;DHT22;25309;48.686;9.170;2023-02-13T13:01:39;15.40;87.80
39621;DHT22;25309;48.686;9.170;2023-02-13T13:04:15;15.40;87.60
39621;DHT22;25309;48.686;9.170;2023-02-13T13:06:57;15.00;88.50
39621;DHT22;25309;48.686;9.170;2023-02-13T13:09:39;15.00;88.90
39621;DHT22;25309;48.686;9.170;2023-02-13T13:12:32;15.10;88.80
39621;DHT22;25309;48.686;9.170;2023-02-13T13:15:06;15.10;88.00
39621;DHT22;25309;48.686;9.170;2023-02-13T13:17:44;14.80;87.80
39621;DHT22;25309;48.686;9.170;2023-02-13T13:20:30;14.60;89.40
39621;DHT22;25309;48.686;9.170;2023-02-13T13:23:05;14.50;89.40
39621;DHT22;25309;48.686;9.170;2023-02-13T13:25:40;14.30;90.00
39621;DHT22;25309;48.686;9.170;2023-02-13T13:28:14;14.30;90.10
39621;DHT22;25309;48.686;9.170;2023-02-13T13:30:42;14.50;90.00
39621;DHT22;25309;48.686;9.170;2023-02-13T13:33:15;14.40;90.30
39621;DHT22;25309;48.686;9.170;2023-02-13T13:35:46;14.20;90.30
39621;DHT22;25309;48.686;9.170;2023-02-13T13:38:20;14.20;90.40
39621;DHT22;25309;48.686;9.170;2023-02-13T13:40:55;14.40;90.70
39621;DHT22;25309;48.686;9.170;2023-02-13T13:43:30;14.80;90.20
39621;DHT22;25309;48.686;9.170;2023-02-13T13:46:06;15.00;90.00
39621;DHT22;25309;48.686;9.170;2023-02-13T13:48:52;15.30;89.10
39621;DHT22;25309;48.686;9.170;2023-02-13T13:51:21;15.40;88.20
39621;DHT22;25309;48.686;9.170;2023-02-13T13:54:21;15.20;87.40
39621;DHT22;25309;48.686;9.170;2023-02-13T13:57:07;14.80;89.10
39621;DHT22;25309;48.686;9.170;2023-02-13T13:59:56;14.70;90.10
39621;DHT22;25309;48.686;9.170;2023-02-13T14:02:41;14.80;90.10
39621;DHT22;25309;48.686;9.170;2023-02-13T14:05:21;14.80;90.00
39621;DHT22;25309;48.686;9.170;2023-02-13T14:07:50;14.70;89.50
39621;DHT22;25309;48.686;9.170;2023-02-13T14:13:35;14.10;90.80
39621;DHT22;25309;48.686;9.170;2023-02-13T14:16:05;14.00;91.20
39621;DHT22;25309;48.686;9.170;2023-02-13T14:18:33;13.90;91.60
39621;DHT22;25309;48.686;9.170;2023-02-13T14:21:02;13.80;91.30
39621;DHT22;25309;48.686;9.170;2023-02-13T14:23:33;13.50;91.80
39621;DHT22;25309;48.686;9.170;2023-02-13T14:26:27;13.00;92.40
39621;DHT22;25309;48.686;9.170;2023-02-13T14:32:16;13.60;92.10
39621;DHT22;25309;48.686;9.170;2023-02-13T14:34:55;13.70;92.30
39621;DHT22;25309;48.686;9.170;2023-02-13T14:37:29;13.90;92.30
39621;DHT22;25309;48.686;9.170;2023-02-13T14:40:41;14.20;92.00
39621;DHT22;25309;48.686;9.170;2023-02-13T14:43:37;14.40;91.30
39621;DHT22;25309;48.686;9.170;2023-02-13T14:46:18;14.50;91.40
39621;DHT22;25309;48.686;9.170;2023-02-13T14:48:54;14.60;90.80
39621;DHT22;25309;48.686;9.170;2023-02-13T14:51:24;14.40;91.10
39621;DHT22;25309;48.686;9.170;2023-02-13T14:53:58;14.10;91.30
39621;DHT22;25309;48.686;9.170;2023-02-13T14:56:27;13.60;91.80
39621;DHT22;25309;48.686;9.170;2023-02-13T14:59:01;13.00;92.60
39621;DHT22;25309;48.686;9.170;2023-02-13T15:01:34;13.00;93.10
39621;DHT22;25309;48.686;9.170;2023-02-13T15:04:09;13.20;92.50
39621;DHT22;25309;48.686;9.170;2023-02-13T15:06:38;13.30;92.80
39621;DHT22;25309;48.686;9.170;2023-02-13T15:09:23;13.60;92.40
39621;DHT22;25309;48.686;9.170;2023-02-13T15:11:52;13.40;92.20
39621;DHT22;25309;48.686;9.170;2023-02-13T15:14:27;13.30;92.30
39621;DHT22;25309;48.686;9.170;2023-02-13T15:17:00;12.90;92.80
39621;DHT22;25309;48.686;9.170;2023-02-13T15:19:29;12.40;93.50
39621;DHT22;25309;48.686;9.170;2023-02-13T15:21:58;12.30;93.50
39621;DHT22;25309;48.686;9.170;2023-02-13T15:24:28;11.80;94.00
39621;DHT22;25309;48.686;9.170;2023-02-13T15:27:00;11.70;94.40
39621;DHT22;25309;48.686;9.170;2023-02-13T15:29:28;11.80;94.40
39621;DHT22;25309;48.686;9.170;2023-02-13T15:32:17;11.70;94.20
39621;DHT22;25309;48.686;9.170;2023-02-13T15:34:47;11.60;94.40
39621;DHT22;25309;48.686;9.170;2023-02-13T15:37:20;11.60;94.40
39621;DHT22;25309;48.686;9.170;2023-02-13T15:39:47;11.50;94.50
39621;DHT22;25309;48.686;9.170;2023-02-13T15:42:14;11.50;94.70
39621;DHT22;25309;48.686;9.170;2023-02-13T15:44:44;11.30;94.70
39621;DHT22;25309;48.686;9.170;2023-02-13T15:47:16;11.40;94.50
39621;DHT22;25309;48.686;9.170;2023-02-13T15:49:46;11.30;94.70
39621;DHT22;25309;48.686;9.170;2023-02-13T15:52:18;11.10;95.10
39621;DHT22;25309;48.686;9.170;2023-02-13T15:54:49;11.10;94.70
39621;DHT22;25309;48.686;9.170;2023-02-13T15:57:16;11.20;94.60
39621;DHT22;25309;48.686;9.170;2023-02-13T15:59:44;11.20;94.50
39621;DHT22;25309;48.686;9.170;2023-02-13T16:02:17;11.30;94.50
39621;DHT22;25309;48.686;9.170;2023-02-13T16:04:46;11.30;94.40
39621;DHT22;25309;48.686;9.170;2023-02-13T16:07:14;11.20;94.30
39621;DHT22;25309;48.686;9.170;2023-02-13T16:09:42;11.10;94.40
39621;DHT22;25309;48.686;9.170;2023-02-13T16:12:18;10.90;94.80
39621;DHT22;25309;48.686;9.170;2023-02-13T16:14:50;10.80;94.80
39621;DHT22;25309;48.686;9.170;2023-02-13T16:17:25;10.70;95.00
39621;DHT22;25309;48.686;9.170;2023-02-13T16:19:57;10.50;94.90
39621;DHT22;25309;48.686;9.170;2023-02-13T16:22:30;10.30;95.20
39621;DHT22;25309;48.686;9.170;2023-02-13T16:25:04;10.10;95.40
39621;DHT22;25309;48.686;9.170;2023-02-13T16:27:32;9.90;95.60
39621;DHT22;25309;48.686;9.170;2023-02-13T16:30:03;9.80;95.80